Terminal Aerodrome Forecast
Issued by NWS Charleston, WV

Current Version | Previous Version | Graphics & Text | Print | Product List | Glossary On
Versions: 1 2 3 4 5 6 7 8 9 10 11 12 13 14 15 16 17 18 19 20 21 22 23
000
FTUS41 KRLX 300910 AAA
TAFEKN
TAF AMD
KEKN 300910Z 3009/0106 00000KT P6SM SCT022 OVC040
     FM301300 18004KT 6SM HZ OVC020
     FM301900 18005KT 5SM -SHRA HZ OVC020
     FM302100 18008KT 3SM -SHRA HZ OVC015
     FM010500 18005KT 5SM -SHRA BR OVC020=

USA.gov is the U.S. government's official web portal to all federal, state and local government web resources and services.